Time;durP1;ratioP1;P1;durP2;ratioP2;P2;SDS_P1;SDS_P2;PMS_P1;PMS_P2;Temp;Humidity;BMP_temperature;BMP_pressure;BME280_temperature;BME280_humidity;BME280_pressure;Samples;Min_cycle;Max_cycle;Signal;HPM_P1;HPM_P2
2024/01/22 04:52:17;;;;;;;;;;;-4.20;99.90;;;;;;5408521;22;19929;-76
2024/01/22 04:54:44;;;;;;;;;;;-4.20;99.90;;;;;;5033881;28;19933;-76
2024/01/22 04:57:10;;;;;;;;;;;-4.10;99.90;;;;;;5033829;28;19929;-77
2024/01/22 04:59:37;;;;;;;;;;;-4.00;99.90;;;;;;5034765;28;19925;-76
2024/01/22 05:02:03;;;;;;;;;;;-4.00;99.90;;;;;;5037706;28;19932;-73
2024/01/22 05:04:30;;;;;;;;;;;-3.90;99.90;;;;;;5038099;28;19925;-74
2024/01/22 05:06:57;;;;;;;;;;;-3.90;99.90;;;;;;5037921;28;19924;-76
2024/01/22 05:09:24;;;;;;;;;;;-3.90;99.90;;;;;;5037451;28;19925;-77
2024/01/22 05:11:51;;;;;;;;;;;-3.90;99.90;;;;;;5037041;28;20325;-77
2024/01/22 05:14:18;;;;;;;;;;;-3.90;99.90;;;;;;5037383;28;19925;-77
2024/01/22 05:16:44;;;;;;;;;;;-3.80;99.90;;;;;;5037553;28;19925;-78
2024/01/22 05:19:11;;;;;;;;;;;-3.80;99.90;;;;;;5037324;28;20393;-78
2024/01/22 05:21:37;;;;;;;;;;;-3.70;99.90;;;;;;5038543;28;19936;-76
2024/01/22 05:24:04;;;;;;;;;;;-3.70;99.90;;;;;;5041555;28;19945;-76
2024/01/22 05:26:32;;;;;;;;;;;-3.70;99.90;;;;;;5052689;28;19926;-76
2024/01/22 05:28:58;;;;;;;;;;;-3.60;99.90;;;;;;5039257;28;20268;-76
2024/01/22 05:31:25;;;;;;;;;;;-3.50;99.90;;;;;;5037155;28;19925;-76
2024/01/22 05:33:52;;;;;;;;;;;-3.40;99.90;;;;;;5037595;28;20282;-76
2024/01/22 05:36:18;;;;;;;;;;;-3.40;99.90;;;;;;5037899;28;19948;-75
2024/01/22 05:38:45;;;;;;;;;;;-3.40;99.90;;;;;;5039232;28;19925;-75
2024/01/22 05:41:11;;;;;;;;;;;-3.30;99.90;;;;;;5039169;28;19925;-74
2024/01/22 05:43:39;;;;;;;;;;;-3.20;99.90;;;;;;5037920;28;19925;-73
2024/01/22 05:46:06;;;;;;;;;;;-3.20;99.90;;;;;;5037481;28;19944;-76
2024/01/22 05:48:33;;;;;;;;;;;-3.10;99.90;;;;;;5036907;28;19924;-74
2024/01/22 05:50:59;;;;;;;;;;;-3.10;99.90;;;;;;5037710;28;19925;-74
2024/01/22 05:53:26;;;;;;;;;;;-3.00;99.90;;;;;;5036323;28;19925;-73
2024/01/22 05:55:52;;;;;;;;;;;-2.90;99.90;;;;;;5036923;28;19932;-73
2024/01/22 05:58:19;;;;;;;;;;;-2.90;99.90;;;;;;5036882;28;19925;-73
2024/01/22 06:00:47;;;;;;;;;;;-2.90;99.90;;;;;;5037172;28;19925;-74
2024/01/22 06:03:14;;;;;;;;;;;-2.80;99.90;;;;;;5036920;28;19926;-73
2024/01/22 06:05:41;;;;;;;;;;;-2.80;99.90;;;;;;5039609;28;19928;-79
2024/01/22 06:08:07;;;;;;;;;;;-2.80;99.90;;;;;;5038706;28;20270;-76
2024/01/22 06:10:35;;;;;;;;;;;-2.70;99.90;;;;;;5038751;28;19929;-75
2024/01/22 06:13:01;;;;;;;;;;;-2.60;99.90;;;;;;5037819;28;19925;-75
2024/01/22 06:15:28;;;;;;;;;;;-2.60;99.90;;;;;;5038292;28;19932;-75
2024/01/22 06:17:56;;;;;;;;;;;-2.50;99.90;;;;;;5038076;28;19925;-76
2024/01/22 06:20:22;;;;;;;;;;;-2.40;99.90;;;;;;5038329;28;19925;-76
2024/01/22 06:22:49;;;;;;;;;;;-2.40;99.90;;;;;;5036383;28;19932;-76
2024/01/22 06:25:15;;;;;;;;;;;-2.40;99.90;;;;;;5036003;28;20333;-76
2024/01/22 06:27:44;;;;;;;;;;;-2.30;99.90;;;;;;5035913;28;20390;-77
2024/01/22 06:30:12;;;;;;;;;;;-2.30;99.90;;;;;;5035885;28;19936;-77
2024/01/22 06:32:39;;;;;;;;;;;-2.30;99.90;;;;;;5035556;28;19929;-77
2024/01/22 06:35:07;;;;;;;;;;;-2.20;99.90;;;;;;5035927;28;19925;-77
2024/01/22 06:37:34;;;;;;;;;;;-2.20;99.90;;;;;;5035803;28;19929;-77
2024/01/22 06:40:00;;;;;;;;;;;-2.20;99.90;;;;;;5035656;28;19979;-76
2024/01/22 06:42:27;;;;;;;;;;;-2.10;99.90;;;;;;5035580;28;19925;-77
2024/01/22 06:44:54;;;;;;;;;;;-2.10;99.90;;;;;;5035537;28;20282;-77
2024/01/22 06:47:20;;;;;;;;;;;-2.00;99.90;;;;;;5035362;28;19937;-76
2024/01/22 06:49:47;;;;;;;;;;;-1.90;99.90;;;;;;5035402;28;19932;-76
2024/01/22 06:52:15;;;;;;;;;;;-1.90;99.90;;;;;;5035089;28;19932;-76
2024/01/22 06:54:42;;;;;;;;;;;-1.90;99.90;;;;;;5035245;28;19932;-77
2024/01/22 06:57:08;;;;;;;;;;;-1.90;99.90;;;;;;5035360;28;20019;-77
2024/01/22 06:59:35;;;;;;;;;;;-1.90;99.90;;;;;;5035458;28;19929;-77
2024/01/22 07:02:01;;;;;;;;;;;-1.90;99.90;;;;;;5035331;28;19933;-77
2024/01/22 07:04:28;;;;;;;;;;;-1.90;99.90;;;;;;5035420;28;19932;-77
2024/01/22 07:06:55;;;;;;;;;;;-1.90;99.90;;;;;;5035296;28;19925;-77
2024/01/22 07:09:23;;;;;;;;;;;-1.90;99.90;;;;;;5035756;28;19976;-77
2024/01/22 07:11:50;;;;;;;;;;;-1.90;99.90;;;;;;5036352;28;19925;-76
2024/01/22 07:14:17;;;;;;;;;;;-1.90;99.90;;;;;;5036646;28;19973;-75
2024/01/22 07:16:44;;;;;;;;;;;-1.90;99.90;;;;;;5036342;28;20008;-77
2024/01/22 07:19:11;;;;;;;;;;;-1.90;99.90;;;;;;5036407;28;19991;-77
2024/01/22 07:21:37;;;;;;;;;;;-1.90;99.90;;;;;;5036135;28;19929;-77
2024/01/22 07:24:04;;;;;;;;;;;-1.90;99.90;;;;;;5036599;28;19925;-76
2024/01/22 07:26:32;;;;;;;;;;;-1.90;99.90;;;;;;5037503;28;19929;-76
2024/01/22 07:28:59;;;;;;;;;;;-1.90;99.90;;;;;;5037447;28;20020;-76
2024/01/22 07:31:26;;;;;;;;;;;-1.90;99.90;;;;;;5037504;28;19965;-77
2024/01/22 07:33:53;;;;;;;;;;;-1.80;99.90;;;;;;5035454;28;19929;-77
2024/01/22 07:36:20;;;;;;;;;;;-1.80;99.90;;;;;;5036257;28;20049;-77
2024/01/22 07:38:47;;;;;;;;;;;-1.70;99.90;;;;;;5035736;28;20007;-75
2024/01/22 07:41:14;;;;;;;;;;;-1.70;99.90;;;;;;5035661;28;20397;-76
2024/01/22 07:43:42;;;;;;;;;;;-1.70;99.90;;;;;;5036098;28;19936;-76
2024/01/22 07:46:09;;;;;;;;;;;-1.70;99.90;;;;;;5035067;28;19979;-76
2024/01/22 07:48:35;;;;;;;;;;;-1.60;99.90;;;;;;5034514;28;19925;-76
2024/01/22 07:51:02;;;;;;;;;;;-1.60;99.90;;;;;;5034365;28;19932;-76
2024/01/22 07:53:28;;;;;;;;;;;-1.50;99.90;;;;;;5034215;28;19925;-76
2024/01/22 07:55:55;;;;;;;;;;;-1.50;99.90;;;;;;5034243;28;19929;-75
2024/01/22 07:58:21;;;;;;;;;;;-1.40;99.90;;;;;;5034387;28;19925;-76
2024/01/22 08:00:49;;;;;;;;;;;-1.40;99.90;;;;;;5034222;28;19925;-76
2024/01/22 08:03:16;;;;;;;;;;;-1.30;99.90;;;;;;5034452;28;19925;-75
2024/01/22 08:05:42;;;;;;;;;;;-1.30;99.90;;;;;;5033935;28;19929;-76
2024/01/22 08:08:09;;;;;;;;;;;-1.20;99.90;;;;;;5034258;28;19948;-76
2024/01/22 08:10:36;;;;;;;;;;;-1.20;99.90;;;;;;5033964;28;19995;-76
2024/01/22 08:13:03;;;;;;;;;;;-1.10;99.90;;;;;;5034297;28;19925;-76
2024/01/22 08:15:29;;;;;;;;;;;-1.10;99.90;;;;;;5034289;28;19972;-77
2024/01/22 08:17:57;;;;;;;;;;;-1.10;99.90;;;;;;5034325;28;19952;-76
2024/01/22 08:20:24;;;;;;;;;;;-1.00;99.90;;;;;;5034036;28;19929;-76
2024/01/22 08:22:51;;;;;;;;;;;-1.00;99.90;;;;;;5033846;28;19929;-76
2024/01/22 08:25:26;;;;;;;;;;;-0.90;99.90;;;;;;5034046;28;19948;-76
2024/01/22 08:27:53;;;;;;;;;;;-0.90;99.90;;;;;;5034016;28;19926;-76
2024/01/22 08:30:20;;;;;;;;;;;-0.80;99.90;;;;;;5033860;28;19925;-76
2024/01/22 08:32:46;;;;;;;;;;;-0.80;99.90;;;;;;5033817;28;19929;-76
2024/01/22 08:35:14;;;;;;;;;;;-0.70;99.90;;;;;;5035715;28;19932;-76
2024/01/22 08:37:41;;;;;;;;;;;-0.70;99.90;;;;;;5038010;28;19934;-76
2024/01/22 08:40:08;;;;;;;;;;;-0.60;99.90;;;;;;5037918;28;19930;-76
2024/01/22 08:42:35;;;;;;;;;;;-0.60;99.90;;;;;;5037710;28;19933;-76
2024/01/22 08:45:02;;;;;;;;;;;-0.50;99.90;;;;;;5037745;28;19940;-76
2024/01/22 08:47:28;;;;;;;;;;;-0.50;99.90;;;;;;5037735;28;19925;-76
2024/01/22 08:49:55;;;;;;;;;;;-0.40;99.90;;;;;;5037555;28;19925;-76
2024/01/22 08:52:22;;;;;;;;;;;-0.40;99.90;;;;;;5037061;28;20295;-76
2024/01/22 08:54:49;;;;;;;;;;;-0.40;99.90;;;;;;5037395;28;19932;-76
2024/01/22 08:57:16;;;;;;;;;;;-0.30;99.90;;;;;;5037590;28;19925;-77
2024/01/22 08:59:43;;;;;;;;;;;-0.20;99.90;;;;;;5037451;28;19991;-76
2024/01/22 09:02:09;;;;;;;;;;;-0.20;99.90;;;;;;5037173;28;20370;-76
2024/01/22 09:04:36;;;;;;;;;;;-0.10;99.90;;;;;;5037006;28;19976;-76
2024/01/22 09:07:02;;;;;;;;;;;0.00;99.90;;;;;;5037416;28;19933;-76
2024/01/22 09:09:30;;;;;;;;;;;0.10;99.90;;;;;;5037003;28;19929;-76
2024/01/22 09:11:57;;;;;;;;;;;0.20;99.90;;;;;;5037174;28;19950;-76
2024/01/22 09:14:23;;;;;;;;;;;0.40;99.90;;;;;;5037225;28;19948;-76
2024/01/22 09:16:50;;;;;;;;;;;0.60;99.90;;;;;;5036956;28;19929;-76
2024/01/22 09:19:16;;;;;;;;;;;0.80;99.90;;;;;;5037065;28;19925;-76
2024/01/22 09:21:43;;;;;;;;;;;1.00;99.90;;;;;;5036963;28;19925;-76
2024/01/22 09:24:10;;;;;;;;;;;1.10;99.90;;;;;;5037025;28;19976;-76
2024/01/22 09:26:37;;;;;;;;;;;1.20;99.90;;;;;;5036843;28;19925;-76
2024/01/22 09:29:04;;;;;;;;;;;1.30;99.90;;;;;;5037104;28;19925;-76
2024/01/22 09:31:30;;;;;;;;;;;1.40;99.90;;;;;;5037101;28;19925;-76
2024/01/22 09:33:57;;;;;;;;;;;1.50;99.90;;;;;;5037194;28;19932;-76
2024/01/22 09:36:23;;;;;;;;;;;1.60;99.90;;;;;;5036946;28;19925;-76
2024/01/22 09:38:50;;;;;;;;;;;1.70;99.90;;;;;;5036386;28;19932;-76
2024/01/22 09:41:17;;;;;;;;;;;1.70;99.90;;;;;;5036683;28;19932;-76
2024/01/22 09:43:45;;;;;;;;;;;1.70;99.90;;;;;;5036399;28;19925;-76
2024/01/22 09:46:13;;;;;;;;;;;1.70;99.90;;;;;;5036516;28;19929;-76
2024/01/22 09:48:39;;;;;;;;;;;1.70;99.90;;;;;;5036439;28;20379;-76
2024/01/22 09:51:06;;;;;;;;;;;1.70;99.90;;;;;;5037343;28;19948;-75
2024/01/22 09:53:34;;;;;;;;;;;1.70;99.90;;;;;;5036162;28;19936;-75
2024/01/22 09:56:01;;;;;;;;;;;1.70;99.90;;;;;;5036623;28;19932;-76
2024/01/22 09:58:31;;;;;;;;;;;1.80;99.90;;;;;;5036469;28;19924;-76
2024/01/22 10:00:59;;;;;;;;;;;1.80;99.90;;;;;;5036429;28;19929;-76
2024/01/22 10:03:30;;;;;;;;;;;1.90;99.90;;;;;;5036529;28;19932;-76
2024/01/22 10:05:58;;;;;;;;;;;2.00;99.90;;;;;;5036542;28;20015;-76
2024/01/22 10:08:24;;;;;;;;;;;2.10;99.90;;;;;;5036447;28;19925;-76
2024/01/22 10:10:51;;;;;;;;;;;2.10;99.90;;;;;;5036384;28;19928;-76
2024/01/22 10:13:17;;;;;;;;;;;2.10;99.90;;;;;;5036195;28;20291;-76
2024/01/22 10:15:44;;;;;;;;;;;2.20;99.90;;;;;;5036215;28;19972;-76
2024/01/22 10:18:13;;;;;;;;;;;2.30;99.90;;;;;;5036061;28;20413;-76
2024/01/22 10:20:40;;;;;;;;;;;2.40;99.90;;;;;;5036112;28;19926;-76
2024/01/22 10:23:07;;;;;;;;;;;2.50;99.90;;;;;;5036051;28;19929;-76
2024/01/22 10:25:34;;;;;;;;;;;2.60;99.90;;;;;;5036262;28;19929;-76
2024/01/22 10:28:16;;;;;;;;;;;2.70;99.90;;;;;;5036730;28;19925;-76
2024/01/22 10:30:44;;;;;;;;;;;2.80;99.90;;;;;;5036196;28;19980;-76
2024/01/22 10:33:16;;;;;;;;;;;3.00;99.90;;;;;;5036453;28;20000;-76
2024/01/22 10:35:42;;;;;;;;;;;3.10;99.90;;;;;;5036328;28;20382;-77
2024/01/22 10:38:09;;;;;;;;;;;3.20;99.90;;;;;;5035989;28;20395;-76
2024/01/22 10:40:36;;;;;;;;;;;3.40;99.90;;;;;;5036023;28;19925;-76
2024/01/22 10:43:23;;;;;;;;;;;3.50;99.90;;;;;;5035712;28;19936;-76
2024/01/22 10:45:50;;;;;;;;;;;3.50;99.90;;;;;;5036020;28;19925;-76
2024/01/22 10:48:19;;;;;;;;;;;3.60;99.90;;;;;;5036622;28;19933;-76
2024/01/22 10:50:46;;;;;;;;;;;3.70;99.90;;;;;;5037000;28;19932;-76
2024/01/22 10:53:12;;;;;;;;;;;3.90;99.90;;;;;;5036627;28;19925;-76
2024/01/22 10:55:39;;;;;;;;;;;4.00;99.90;;;;;;5036771;28;19932;-75
2024/01/22 10:58:13;;;;;;;;;;;4.00;99.90;;;;;;5035665;28;19925;-76
2024/01/22 11:00:43;;;;;;;;;;;4.20;99.90;;;;;;5036481;28;20040;-76
2024/01/22 11:03:11;;;;;;;;;;;4.30;99.90;;;;;;5036837;28;19987;-76
2024/01/22 11:05:42;;;;;;;;;;;4.30;99.90;;;;;;5046733;23;19930;-71
2024/01/22 11:08:09;;;;;;;;;;;4.40;99.90;;;;;;5016130;28;19932;-70
2024/01/22 11:10:36;;;;;;;;;;;4.40;99.90;;;;;;5015746;28;19932;-70
2024/01/22 11:13:02;;;;;;;;;;;4.50;99.90;;;;;;5016038;28;20001;-70
2024/01/22 11:15:29;;;;;;;;;;;4.60;99.90;;;;;;5016005;28;19925;-71
2024/01/22 11:17:55;;;;;;;;;;;4.70;99.90;;;;;;5016024;28;19930;-71
2024/01/22 11:20:23;;;;;;;;;;;4.90;99.90;;;;;;5015866;28;19929;-71
2024/01/22 11:23:00;;;;;;;;;;;5.00;99.90;;;;;;5015783;28;19977;-71
2024/01/22 11:25:27;;;;;;;;;;;5.10;99.90;;;;;;5016058;28;19977;-71
2024/01/22 11:28:01;;;;;;;;;;;5.20;99.90;;;;;;5015664;28;19932;-71
2024/01/22 11:30:28;;;;;;;;;;;5.30;99.90;;;;;;5015533;28;19926;-71
2024/01/22 11:32:54;;;;;;;;;;;5.50;99.90;;;;;;5015755;28;19976;-71
2024/01/22 11:35:32;;;;;;;;;;;5.60;99.90;;;;;;5015365;28;19932;-71
2024/01/22 11:38:01;;;;;;;;;;;5.70;99.90;;;;;;5015437;28;19926;-71
2024/01/22 11:40:46;;;;;;;;;;;5.80;99.90;;;;;;5015351;28;19972;-72
2024/01/22 11:43:12;;;;;;;;;;;5.80;99.90;;;;;;5009006;28;19952;-72
2024/01/22 11:45:39;;;;;;;;;;;5.90;99.90;;;;;;5014971;28;19927;-72
2024/01/22 11:48:14;;;;;;;;;;;6.00;99.90;;;;;;5015740;28;19925;-72
2024/01/22 11:50:41;;;;;;;;;;;6.10;99.90;;;;;;5015590;28;19926;-72
2024/01/22 11:53:08;;;;;;;;;;;6.30;99.90;;;;;;5015497;28;19926;-72
2024/01/22 11:55:35;;;;;;;;;;;6.50;99.90;;;;;;5015429;28;19926;-71
2024/01/22 11:58:02;;;;;;;;;;;6.60;99.90;;;;;;5015242;28;20378;-70
2024/01/22 12:00:29;;;;;;;;;;;6.80;99.90;;;;;;5014895;28;20394;-70
2024/01/22 12:02:59;;;;;;;;;;;7.00;99.90;;;;;;5015098;28;19935;-70
2024/01/22 12:05:25;;;;;;;;;;;7.20;99.90;;;;;;5014932;28;19933;-71
2024/01/22 12:07:52;;;;;;;;;;;7.30;99.90;;;;;;5015094;28;20291;-71
2024/01/22 12:10:21;;;;;;;;;;;7.30;99.90;;;;;;5019923;28;19952;-70
2024/01/22 12:12:49;;;;;;;;;;;7.40;99.90;;;;;;5014487;28;20425;-70
2024/01/22 12:15:15;;;;;;;;;;;7.40;99.90;;;;;;5014653;28;19933;-71
2024/01/22 12:17:42;;;;;;;;;;;7.40;99.90;;;;;;5014975;28;19979;-71
2024/01/22 12:20:10;;;;;;;;;;;7.50;99.90;;;;;;5014775;28;19929;-71
2024/01/22 12:22:36;;;;;;;;;;;7.40;99.90;;;;;;5014761;28;19930;-71
2024/01/22 12:25:07;;;;;;;;;;;7.40;99.90;;;;;;5014822;28;19925;-71
2024/01/22 12:27:35;;;;;;;;;;;7.40;99.90;;;;;;5014860;28;20349;-71
2024/01/22 12:30:04;;;;;;;;;;;7.30;99.90;;;;;;5015741;28;20028;-71
2024/01/22 12:32:31;;;;;;;;;;;7.30;99.90;;;;;;5015961;28;19925;-70
2024/01/22 12:34:57;;;;;;;;;;;7.30;99.90;;;;;;5015495;28;19925;-71
2024/01/22 12:37:25;;;;;;;;;;;7.20;99.90;;;;;;5016044;28;19932;-71
2024/01/22 12:40:04;;;;;;;;;;;7.10;99.90;;;;;;5016420;28;20027;-71
2024/01/22 12:42:31;;;;;;;;;;;7.10;99.90;;;;;;5016561;28;19932;-71
2024/01/22 12:44:59;;;;;;;;;;;7.10;99.90;;;;;;5016239;28;19925;-71
2024/01/22 12:47:26;;;;;;;;;;;7.10;99.90;;;;;;5015662;28;19968;-71
2024/01/22 12:49:53;;;;;;;;;;;7.20;99.90;;;;;;5014103;28;20357;-71
2024/01/22 12:52:19;;;;;;;;;;;7.30;99.90;;;;;;5014044;28;20413;-71
2024/01/22 12:54:46;;;;;;;;;;;7.30;99.90;;;;;;5014475;28;19979;-71
2024/01/22 12:57:12;;;;;;;;;;;7.40;99.90;;;;;;5015481;28;19929;-71
2024/01/22 12:59:39;;;;;;;;;;;7.40;99.90;;;;;;5014388;28;19933;-70
2024/01/22 13:02:07;;;;;;;;;;;7.50;99.90;;;;;;5014773;28;19937;-71
2024/01/22 13:04:34;;;;;;;;;;;7.60;99.90;;;;;;5014488;28;19933;-71
2024/01/22 13:07:00;;;;;;;;;;;7.70;99.90;;;;;;5014036;28;19925;-71
2024/01/22 13:09:27;;;;;;;;;;;7.70;99.90;;;;;;5014860;28;19948;-70
2024/01/22 13:11:53;;;;;;;;;;;7.70;99.90;;;;;;5014408;28;19925;-70
2024/01/22 13:14:20;;;;;;;;;;;7.70;99.90;;;;;;5014581;28;19932;-70
2024/01/22 13:16:47;;;;;;;;;;;7.70;99.90;;;;;;5014325;28;19937;-71
2024/01/22 13:19:15;;;;;;;;;;;7.70;99.90;;;;;;5014334;28;20034;-70
2024/01/22 13:21:41;;;;;;;;;;;7.60;99.90;;;;;;5016375;28;19925;-71
2024/01/22 13:24:08;;;;;;;;;;;7.70;99.90;;;;;;5020385;28;19925;-70
2024/01/22 13:26:35;;;;;;;;;;;7.70;99.90;;;;;;5037231;28;19937;-70
2024/01/22 13:29:01;;;;;;;;;;;7.70;99.90;;;;;;5037532;28;19925;-70
2024/01/22 13:31:28;;;;;;;;;;;7.70;99.90;;;;;;5037698;28;19926;-70
2024/01/22 13:33:54;;;;;;;;;;;7.70;99.90;;;;;;5036360;28;19932;-70
2024/01/22 13:36:22;;;;;;;;;;;7.70;99.90;;;;;;5020155;28;19929;-70
2024/01/22 13:38:49;;;;;;;;;;;7.70;99.90;;;;;;5018444;28;20028;-71
2024/01/22 13:41:16;;;;;;;;;;;7.70;99.90;;;;;;5018346;28;19932;-70
2024/01/22 13:43:43;;;;;;;;;;;7.80;99.90;;;;;;5018236;28;19926;-70
2024/01/22 13:46:11;;;;;;;;;;;7.80;99.90;;;;;;5017329;28;20417;-71
2024/01/22 13:48:38;;;;;;;;;;;7.70;99.90;;;;;;5017286;28;19929;-70
2024/01/22 13:51:05;;;;;;;;;;;7.70;99.90;;;;;;5017485;28;19925;-70
2024/01/22 13:53:33;;;;;;;;;;;7.70;99.90;;;;;;5018064;28;19965;-71
2024/01/22 13:55:59;;;;;;;;;;;7.60;99.90;;;;;;5017645;28;19930;-70
2024/01/22 13:58:26;;;;;;;;;;;7.60;99.90;;;;;;5017853;28;19929;-70
2024/01/22 14:00:52;;;;;;;;;;;7.60;99.90;;;;;;5017546;28;19933;-70
2024/01/22 14:03:19;;;;;;;;;;;7.50;99.90;;;;;;5017227;28;19926;-70
2024/01/22 14:05:45;;;;;;;;;;;7.50;99.90;;;;;;5016689;28;19980;-71
2024/01/22 14:08:14;;;;;;;;;;;7.40;99.90;;;;;;5017262;28;19932;-70
2024/01/22 14:10:42;;;;;;;;;;;7.40;99.90;;;;;;5016873;28;19929;-71
2024/01/22 14:13:09;;;;;;;;;;;7.40;99.90;;;;;;5017011;28;19976;-71
2024/01/22 14:15:35;;;;;;;;;;;7.40;99.90;;;;;;5016897;28;19925;-71
2024/01/22 14:18:03;;;;;;;;;;;7.40;99.90;;;;;;5016854;28;19925;-71
2024/01/22 14:20:29;;;;;;;;;;;7.30;99.90;;;;;;5016869;28;19925;-71
2024/01/22 14:22:56;;;;;;;;;;;7.30;99.90;;;;;;5016906;28;19969;-71
2024/01/22 14:25:24;;;;;;;;;;;7.30;99.90;;;;;;5016758;28;19926;-71
2024/01/22 14:27:52;;;;;;;;;;;7.30;99.90;;;;;;5016928;28;19932;-70
2024/01/22 14:30:19;;;;;;;;;;;7.30;99.90;;;;;;5016497;28;19926;-70
2024/01/22 14:32:46;;;;;;;;;;;7.20;99.90;;;;;;5015568;28;19941;-70
2024/01/22 14:35:12;;;;;;;;;;;7.20;99.90;;;;;;5016532;28;19933;-71
2024/01/22 14:37:39;;;;;;;;;;;7.20;99.90;;;;;;5017207;28;19931;-71
2024/01/22 14:40:07;;;;;;;;;;;7.20;99.90;;;;;;5017707;28;19926;-70
2024/01/22 14:42:34;;;;;;;;;;;7.20;99.90;;;;;;5016695;28;20001;-70
2024/01/22 14:45:03;;;;;;;;;;;7.20;99.90;;;;;;5016206;28;19968;-70
2024/01/22 14:47:30;;;;;;;;;;;7.10;99.90;;;;;;5016235;28;19925;-70
2024/01/22 14:49:56;;;;;;;;;;;7.10;99.90;;;;;;5016372;28;19926;-70
2024/01/22 14:52:23;;;;;;;;;;;7.10;99.90;;;;;;5016556;28;19929;-70
2024/01/22 14:54:50;;;;;;;;;;;7.00;99.90;;;;;;5016713;28;19972;-70
2024/01/22 14:57:17;;;;;;;;;;;7.00;99.90;;;;;;5016599;28;19965;-70
2024/01/22 14:59:43;;;;;;;;;;;7.00;99.90;;;;;;5016394;28;19925;-71
2024/01/22 15:02:11;;;;;;;;;;;7.00;99.90;;;;;;5016495;28;19926;-70
2024/01/22 15:04:38;;;;;;;;;;;7.00;99.90;;;;;;5016695;28;19933;-71
2024/01/22 15:07:04;;;;;;;;;;;6.90;99.90;;;;;;5016255;28;19933;-71
2024/01/22 15:09:31;;;;;;;;;;;6.90;99.90;;;;;;5016880;28;19926;-71
2024/01/22 15:11:57;;;;;;;;;;;6.80;99.90;;;;;;5016223;28;19933;-70
2024/01/22 15:14:26;;;;;;;;;;;6.80;99.90;;;;;;5016252;28;19922;-71
2024/01/22 15:16:53;;;;;;;;;;;6.80;99.90;;;;;;5015706;28;20028;-71
2024/01/22 15:19:21;;;;;;;;;;;6.70;99.90;;;;;;5015390;28;20401;-71
2024/01/22 15:21:47;;;;;;;;;;;6.70;99.90;;;;;;5015548;28;20302;-71
2024/01/22 15:24:16;;;;;;;;;;;6.60;99.90;;;;;;5015440;28;20387;-71
2024/01/22 15:26:43;;;;;;;;;;;6.60;99.90;;;;;;5016121;28;19968;-71
2024/01/22 15:29:09;;;;;;;;;;;6.50;99.90;;;;;;5016156;28;19948;-72
2024/01/22 15:31:36;;;;;;;;;;;6.50;99.90;;;;;;5015569;28;19929;-71
2024/01/22 15:34:04;;;;;;;;;;;6.40;99.90;;;;;;5015424;28;19926;-70
2024/01/22 15:36:32;;;;;;;;;;;6.40;99.90;;;;;;5015951;28;19925;-71
2024/01/22 15:38:58;;;;;;;;;;;6.30;99.90;;;;;;5015822;28;20391;-71
2024/01/22 15:41:26;;;;;;;;;;;6.30;99.90;;;;;;5016646;28;20349;-70
2024/01/22 15:43:53;;;;;;;;;;;6.20;99.90;;;;;;5016441;28;20418;-71
2024/01/22 15:46:20;;;;;;;;;;;6.20;99.90;;;;;;5016380;28;19926;-71
2024/01/22 15:48:47;;;;;;;;;;;6.20;99.90;;;;;;5016156;28;20383;-70
2024/01/22 15:51:14;;;;;;;;;;;6.10;99.90;;;;;;5016822;28;19925;-71
2024/01/22 15:53:42;;;;;;;;;;;6.10;99.90;;;;;;5015680;28;19976;-71
2024/01/22 15:56:08;;;;;;;;;;;6.10;99.90;;;;;;5015245;28;19929;-71
2024/01/22 15:58:35;;;;;;;;;;;6.10;99.90;;;;;;5015161;28;19925;-71
2024/01/22 16:01:01;;;;;;;;;;;6.10;99.90;;;;;;5015476;28;19932;-72
2024/01/22 16:03:28;;;;;;;;;;;6.10;99.90;;;;;;5015560;28;19925;-72
2024/01/22 16:05:55;;;;;;;;;;;6.10;99.90;;;;;;5015408;28;19926;-71
2024/01/22 16:08:22;;;;;;;;;;;6.00;99.90;;;;;;5015437;28;19925;-72
2024/01/22 16:10:50;;;;;;;;;;;6.00;99.90;;;;;;5015586;28;19929;-72
2024/01/22 16:13:17;;;;;;;;;;;6.00;99.90;;;;;;5015027;28;20342;-72
2024/01/22 16:15:43;;;;;;;;;;;6.00;99.90;;;;;;5014485;28;20367;-72
2024/01/22 16:18:10;;;;;;;;;;;5.90;99.90;;;;;;5015117;28;20291;-72
2024/01/22 16:20:36;;;;;;;;;;;5.90;99.90;;;;;;5015085;28;20417;-71
2024/01/22 16:23:03;;;;;;;;;;;5.90;99.90;;;;;;5015736;28;19926;-72
2024/01/22 16:25:29;;;;;;;;;;;5.80;99.90;;;;;;5015528;28;19932;-71
2024/01/22 16:27:58;;;;;;;;;;;5.80;99.90;;;;;;5015485;28;19926;-71
2024/01/22 16:30:25;;;;;;;;;;;5.80;99.90;;;;;;5014814;28;19925;-71
2024/01/22 16:32:51;;;;;;;;;;;5.80;99.90;;;;;;5015017;28;20018;-72
2024/01/22 16:35:18;;;;;;;;;;;5.70;99.90;;;;;;5014900;28;19932;-72
2024/01/22 16:37:44;;;;;;;;;;;5.70;99.90;;;;;;5014880;28;19925;-74
2024/01/22 16:40:14;;;;;;;;;;;5.60;99.90;;;;;;5014848;28;19930;-71
2024/01/22 16:42:40;;;;;;;;;;;6.00;99.90;;;;;;5014732;28;19926;-72
2024/01/22 16:45:09;;;;;;;;;;;5.50;99.90;;;;;;5014689;28;19926;-72
2024/01/22 16:47:35;;;;;;;;;;;5.50;99.90;;;;;;5015007;28;19925;-71
2024/01/22 16:50:02;;;;;;;;;;;5.50;99.90;;;;;;5014930;28;19933;-70
2024/01/22 16:52:28;;;;;;;;;;;5.40;99.90;;;;;;5014939;28;19949;-71
2024/01/22 16:54:55;;;;;;;;;;;5.40;99.90;;;;;;5014453;28;20389;-69
2024/01/22 16:57:21;;;;;;;;;;;5.30;99.90;;;;;;5018206;28;19925;-70
2024/01/22 16:59:48;;;;;;;;;;;5.30;99.90;;;;;;5018607;28;19933;-72
2024/01/22 17:02:16;;;;;;;;;;;5.30;99.90;;;;;;5018816;28;19926;-72
2024/01/22 17:04:42;;;;;;;;;;;5.20;99.90;;;;;;5018868;28;19933;-73
2024/01/22 17:07:11;;;;;;;;;;;5.20;99.90;;;;;;5018280;28;20272;-73
2024/01/22 17:09:38;;;;;;;;;;;5.20;99.90;;;;;;5018779;28;20012;-75
2024/01/22 17:12:05;;;;;;;;;;;5.20;99.90;;;;;;5018602;28;19925;-75
2024/01/22 17:14:32;;;;;;;;;;;5.20;99.90;;;;;;5019219;28;19933;-74
2024/01/22 17:16:59;;;;;;;;;;;5.20;99.90;;;;;;5018346;28;19926;-74
2024/01/22 17:19:27;;;;;;;;;;;5.20;99.90;;;;;;5018278;28;19968;-74
2024/01/22 17:21:53;;;;;;;;;;;5.20;99.90;;;;;;5018000;28;19925;-74
2024/01/22 17:24:20;;;;;;;;;;;5.20;99.90;;;;;;5017807;28;19968;-74
2024/01/22 17:26:47;;;;;;;;;;;5.20;99.90;;;;;;5017784;28;19952;-74
2024/01/22 17:29:13;;;;;;;;;;;5.30;99.90;;;;;;5017855;28;19929;-74
2024/01/22 17:31:40;;;;;;;;;;;5.30;99.90;;;;;;5017471;28;19952;-74
2024/01/22 17:34:06;;;;;;;;;;;5.30;99.90;;;;;;5017637;28;20338;-74
2024/01/22 17:36:34;;;;;;;;;;;5.40;99.90;;;;;;5018179;28;19932;-75
2024/01/22 17:39:01;;;;;;;;;;;5.40;99.90;;;;;;5017657;28;19933;-75
2024/01/22 17:41:28;;;;;;;;;;;5.40;99.90;;;;;;5018260;28;19960;-75
2024/01/22 17:43:55;;;;;;;;;;;5.50;99.90;;;;;;5018921;28;20016;-75
2024/01/22 17:46:22;;;;;;;;;;;5.50;99.90;;;;;;5017975;28;19926;-75
2024/01/22 17:48:50;;;;;;;;;;;5.50;99.90;;;;;;5017794;28;19930;-75
2024/01/22 17:51:17;;;;;;;;;;;5.50;99.90;;;;;;5017393;28;19925;-75
2024/01/22 17:53:44;;;;;;;;;;;5.50;99.90;;;;;;5018373;28;19933;-76
2024/01/22 17:56:11;;;;;;;;;;;5.60;99.90;;;;;;5017564;28;19949;-76
2024/01/22 17:58:38;;;;;;;;;;;5.60;99.90;;;;;;5017840;28;19932;-76
2024/01/22 18:01:04;;;;;;;;;;;5.60;99.90;;;;;;5019593;28;20315;-75
2024/01/22 18:03:31;;;;;;;;;;;5.60;99.90;;;;;;5020350;28;19929;-75
2024/01/22 18:05:57;;;;;;;;;;;5.60;99.90;;;;;;5020069;28;19926;-73
2024/01/22 18:08:24;;;;;;;;;;;5.50;99.90;;;;;;5018577;28;19930;-73
2024/01/22 18:10:53;;;;;;;;;;;5.50;99.90;;;;;;5019270;28;19936;-73
2024/01/22 18:13:20;;;;;;;;;;;5.50;99.90;;;;;;5020201;28;20300;-73
2024/01/22 18:15:46;;;;;;;;;;;5.50;99.90;;;;;;5019470;28;19925;-73
2024/01/22 18:18:13;;;;;;;;;;;5.40;99.90;;;;;;5019347;28;19996;-75
2024/01/22 18:20:40;;;;;;;;;;;5.30;99.90;;;;;;5018027;28;20298;-75
2024/01/22 18:23:06;;;;;;;;;;;5.30;99.90;;;;;;5018758;28;19976;-74
2024/01/22 18:25:33;;;;;;;;;;;5.30;99.90;;;;;;5018013;28;19925;-73
2024/01/22 18:28:02;;;;;;;;;;;5.20;99.90;;;;;;5017015;28;19992;-75
2024/01/22 18:30:28;;;;;;;;;;;5.20;99.90;;;;;;5017671;28;19925;-73
2024/01/22 18:32:55;;;;;;;;;;;5.10;99.90;;;;;;5017090;28;19925;-75
2024/01/22 18:35:23;;;;;;;;;;;5.10;99.90;;;;;;5016841;28;20382;-74
2024/01/22 18:37:50;;;;;;;;;;;5.00;99.90;;;;;;5017075;28;19925;-74
2024/01/22 18:40:17;;;;;;;;;;;5.00;99.90;;;;;;5017120;28;20383;-74
2024/01/22 18:42:43;;;;;;;;;;;5.00;99.90;;;;;;5017705;28;20110;-73
2024/01/22 18:45:11;;;;;;;;;;;4.90;99.90;;;;;;5018642;28;19926;-75
2024/01/22 18:47:39;;;;;;;;;;;4.90;99.90;;;;;;5018543;28;19933;-73
2024/01/22 18:50:07;;;;;;;;;;;4.90;99.90;;;;;;5017690;28;20020;-72
2024/01/22 18:52:34;;;;;;;;;;;4.90;99.90;;;;;;5017056;28;19926;-72
2024/01/22 18:55:00;;;;;;;;;;;4.80;99.90;;;;;;5019057;28;19925;-71
2024/01/22 18:57:27;;;;;;;;;;;4.80;99.90;;;;;;5020237;28;19932;-72
2024/01/22 18:59:54;;;;;;;;;;;4.80;99.90;;;;;;5020292;28;19933;-72
2024/01/22 19:02:22;;;;;;;;;;;4.80;99.90;;;;;;5020146;28;19932;-71
2024/01/22 19:04:48;;;;;;;;;;;4.70;99.90;;;;;;5020351;28;19932;-71
2024/01/22 19:07:15;;;;;;;;;;;4.70;99.90;;;;;;5019667;28;19925;-73
2024/01/22 19:09:43;;;;;;;;;;;4.80;99.90;;;;;;5019710;28;19933;-73
2024/01/22 19:12:10;;;;;;;;;;;4.80;99.90;;;;;;5018508;28;19926;-72
2024/01/22 19:14:36;;;;;;;;;;;4.80;99.90;;;;;;5020431;28;19932;-71
2024/01/22 19:17:05;;;;;;;;;;;5.30;99.90;;;;;;5035523;28;19931;-72